sensor_id;sensor_type;location;lat;lon;timestamp;temperature;humidity
64111;DHT22;50401;48.188;11.566;2022-08-19T00:02:13;19.97;83.66
64111;DHT22;50401;48.188;11.566;2022-08-19T00:04:39;19.94;83.62
64111;DHT22;50401;48.188;11.566;2022-08-19T00:07:05;19.96;83.47
64111;DHT22;50401;48.188;11.566;2022-08-19T00:09:31;20.03;83.23
64111;DHT22;50401;48.188;11.566;2022-08-19T00:11:56;20.07;82.99
64111;DHT22;50401;48.188;11.566;2022-08-19T00:14:23;20.01;83.28
64111;DHT22;50401;48.188;11.566;2022-08-19T00:16:50;19.80;83.81
64111;DHT22;50401;48.188;11.566;2022-08-19T00:19:19;19.62;84.54
64111;DHT22;50401;48.188;11.566;2022-08-19T00:21:44;19.76;84.52
64111;DHT22;50401;48.188;11.566;2022-08-19T00:24:10;19.91;83.97
64111;DHT22;50401;48.188;11.566;2022-08-19T00:26:36;20.10;83.53
64111;DHT22;50401;48.188;11.566;2022-08-19T00:29:02;20.18;82.96
64111;DHT22;50401;48.188;11.566;2022-08-19T00:31:28;20.22;82.53
64111;DHT22;50401;48.188;11.566;2022-08-19T00:33:53;20.24;82.51
64111;DHT22;50401;48.188;11.566;2022-08-19T00:36:19;20.22;82.41
64111;DHT22;50401;48.188;11.566;2022-08-19T00:38:44;20.36;81.91
64111;DHT22;50401;48.188;11.566;2022-08-19T00:41:12;20.43;81.82
64111;DHT22;50401;48.188;11.566;2022-08-19T00:43:38;20.43;81.86
64111;DHT22;50401;48.188;11.566;2022-08-19T00:46:04;20.41;81.76
64111;DHT22;50401;48.188;11.566;2022-08-19T00:48:30;20.33;81.74
64111;DHT22;50401;48.188;11.566;2022-08-19T00:50:56;20.22;82.13
64111;DHT22;50401;48.188;11.566;2022-08-19T00:53:23;20.18;82.34
64111;DHT22;50401;48.188;11.566;2022-08-19T00:55:49;20.15;82.43
64111;DHT22;50401;48.188;11.566;2022-08-19T00:58:16;20.10;82.76
64111;DHT22;50401;48.188;11.566;2022-08-19T01:00:42;20.07;82.59
64111;DHT22;50401;48.188;11.566;2022-08-19T01:03:09;20.01;82.91
64111;DHT22;50401;48.188;11.566;2022-08-19T01:05:34;20.10;82.69
64111;DHT22;50401;48.188;11.566;2022-08-19T01:08:00;20.20;82.19
64111;DHT22;50401;48.188;11.566;2022-08-19T01:10:28;20.28;82.06
64111;DHT22;50401;48.188;11.566;2022-08-19T01:12:54;20.26;81.90
64111;DHT22;50401;48.188;11.566;2022-08-19T01:15:21;20.29;81.99
64111;DHT22;50401;48.188;11.566;2022-08-19T01:17:48;20.25;82.09
64111;DHT22;50401;48.188;11.566;2022-08-19T01:20:14;20.29;82.01
64111;DHT22;50401;48.188;11.566;2022-08-19T01:22:43;20.38;81.62
64111;DHT22;50401;48.188;11.566;2022-08-19T01:25:09;20.28;81.82
64111;DHT22;50401;48.188;11.566;2022-08-19T01:27:41;20.36;81.75
64111;DHT22;50401;48.188;11.566;2022-08-19T01:30:07;20.28;81.84
64111;DHT22;50401;48.188;11.566;2022-08-19T01:32:33;20.25;82.12
64111;DHT22;50401;48.188;11.566;2022-08-19T01:34:58;20.24;82.03
64111;DHT22;50401;48.188;11.566;2022-08-19T01:37:26;20.20;82.43
64111;DHT22;50401;48.188;11.566;2022-08-19T01:39:51;20.17;82.36
64111;DHT22;50401;48.188;11.566;2022-08-19T01:42:16;20.08;82.53
64111;DHT22;50401;48.188;11.566;2022-08-19T01:44:42;19.98;82.77
64111;DHT22;50401;48.188;11.566;2022-08-19T01:47:07;19.93;83.13
64111;DHT22;50401;48.188;11.566;2022-08-19T01:49:34;19.96;83.15
64111;DHT22;50401;48.188;11.566;2022-08-19T01:51:59;19.94;83.07
64111;DHT22;50401;48.188;11.566;2022-08-19T01:54:25;19.96;82.86
64111;DHT22;50401;48.188;11.566;2022-08-19T01:56:51;19.91;83.31
64111;DHT22;50401;48.188;11.566;2022-08-19T01:59:18;19.93;83.28
64111;DHT22;50401;48.188;11.566;2022-08-19T02:01:44;19.79;83.72
64111;DHT22;50401;48.188;11.566;2022-08-19T02:04:09;19.82;83.82
64111;DHT22;50401;48.188;11.566;2022-08-19T02:06:35;19.86;83.65
64111;DHT22;50401;48.188;11.566;2022-08-19T02:09:00;19.76;83.98
64111;DHT22;50401;48.188;11.566;2022-08-19T02:11:35;19.90;83.47
64111;DHT22;50401;48.188;11.566;2022-08-19T02:14:02;19.86;83.43
64111;DHT22;50401;48.188;11.566;2022-08-19T02:16:28;19.87;83.51
64111;DHT22;50401;48.188;11.566;2022-08-19T02:18:53;19.91;83.19
64111;DHT22;50401;48.188;11.566;2022-08-19T02:21:20;19.91;83.28
64111;DHT22;50401;48.188;11.566;2022-08-19T02:23:46;19.89;83.33
64111;DHT22;50401;48.188;11.566;2022-08-19T02:26:11;19.86;83.38
64111;DHT22;50401;48.188;11.566;2022-08-19T02:28:37;19.84;83.28
64111;DHT22;50401;48.188;11.566;2022-08-19T02:31:03;19.87;83.23
64111;DHT22;50401;48.188;11.566;2022-08-19T02:33:28;19.97;82.99
64111;DHT22;50401;48.188;11.566;2022-08-19T02:35:53;19.86;83.30
64111;DHT22;50401;48.188;11.566;2022-08-19T02:38:19;19.90;83.13
64111;DHT22;50401;48.188;11.566;2022-08-19T02:40:54;19.86;82.94
64111;DHT22;50401;48.188;11.566;2022-08-19T02:43:20;19.54;84.19
64111;DHT22;50401;48.188;11.566;2022-08-19T02:45:45;19.54;84.38
64111;DHT22;50401;48.188;11.566;2022-08-19T02:48:10;19.67;84.00
64111;DHT22;50401;48.188;11.566;2022-08-19T02:50:39;19.84;83.29
64111;DHT22;50401;48.188;11.566;2022-08-19T02:53:04;20.07;82.28
64111;DHT22;50401;48.188;11.566;2022-08-19T02:55:31;20.13;82.09
64111;DHT22;50401;48.188;11.566;2022-08-19T02:57:56;20.18;81.86
64111;DHT22;50401;48.188;11.566;2022-08-19T03:00:22;20.24;81.71
64111;DHT22;50401;48.188;11.566;2022-08-19T03:02:48;20.21;81.45
64111;DHT22;50401;48.188;11.566;2022-08-19T03:05:13;20.21;81.52
64111;DHT22;50401;48.188;11.566;2022-08-19T03:07:39;20.26;81.32
64111;DHT22;50401;48.188;11.566;2022-08-19T03:10:04;20.26;81.20
64111;DHT22;50401;48.188;11.566;2022-08-19T03:12:30;20.29;81.28
64111;DHT22;50401;48.188;11.566;2022-08-19T03:14:55;20.32;81.07
64111;DHT22;50401;48.188;11.566;2022-08-19T03:17:20;20.35;80.93
64111;DHT22;50401;48.188;11.566;2022-08-19T03:19:46;20.29;81.16
64111;DHT22;50401;48.188;11.566;2022-08-19T03:22:11;20.31;81.19
64111;DHT22;50401;48.188;11.566;2022-08-19T03:24:37;20.20;81.47
64111;DHT22;50401;48.188;11.566;2022-08-19T03:27:02;20.07;81.87
64111;DHT22;50401;48.188;11.566;2022-08-19T03:29:29;20.08;82.04
64111;DHT22;50401;48.188;11.566;2022-08-19T03:31:57;20.22;81.70
64111;DHT22;50401;48.188;11.566;2022-08-19T03:34:23;20.22;81.56
64111;DHT22;50401;48.188;11.566;2022-08-19T03:36:51;20.03;82.17
64111;DHT22;50401;48.188;11.566;2022-08-19T03:39:17;20.11;81.95
64111;DHT22;50401;48.188;11.566;2022-08-19T03:41:43;20.10;82.11
64111;DHT22;50401;48.188;11.566;2022-08-19T03:44:08;20.10;82.01
64111;DHT22;50401;48.188;11.566;2022-08-19T03:46:35;20.25;81.64
64111;DHT22;50401;48.188;11.566;2022-08-19T03:49:01;20.26;81.33
64111;DHT22;50401;48.188;11.566;2022-08-19T03:51:34;20.29;81.42
64111;DHT22;50401;48.188;11.566;2022-08-19T03:54:00;20.33;81.31
64111;DHT22;50401;48.188;11.566;2022-08-19T03:56:27;20.39;81.15
64111;DHT22;50401;48.188;11.566;2022-08-19T03:58:53;20.39;81.11
64111;DHT22;50401;48.188;11.566;2022-08-19T04:01:20;20.42;81.03
64111;DHT22;50401;48.188;11.566;2022-08-19T04:03:46;20.48;80.82
64111;DHT22;50401;48.188;11.566;2022-08-19T04:06:15;20.46;80.84
64111;DHT22;50401;48.188;11.566;2022-08-19T04:08:42;20.38;81.17
64111;DHT22;50401;48.188;11.566;2022-08-19T04:11:08;20.42;81.21
64111;DHT22;50401;48.188;11.566;2022-08-19T04:13:34;20.38;81.09
64111;DHT22;50401;48.188;11.566;2022-08-19T04:15:59;20.35;81.34
64111;DHT22;50401;48.188;11.566;2022-08-19T04:18:25;20.33;81.51
64111;DHT22;50401;48.188;11.566;2022-08-19T04:20:50;20.38;81.37
64111;DHT22;50401;48.188;11.566;2022-08-19T04:23:15;20.35;81.44
64111;DHT22;50401;48.188;11.566;2022-08-19T04:25:42;20.41;81.42
64111;DHT22;50401;48.188;11.566;2022-08-19T04:28:08;20.46;81.20
64111;DHT22;50401;48.188;11.566;2022-08-19T04:30:48;20.46;81.22
64111;DHT22;50401;48.188;11.566;2022-08-19T04:33:14;20.43;81.45
64111;DHT22;50401;48.188;11.566;2022-08-19T04:35:41;20.50;81.09
64111;DHT22;50401;48.188;11.566;2022-08-19T04:38:07;20.52;81.10
64111;DHT22;50401;48.188;11.566;2022-08-19T04:40:32;20.43;81.27
64111;DHT22;50401;48.188;11.566;2022-08-19T04:43:16;20.49;81.24
64111;DHT22;50401;48.188;11.566;2022-08-19T04:45:45;20.48;81.06
64111;DHT22;50401;48.188;11.566;2022-08-19T04:48:11;20.46;81.36
64111;DHT22;50401;48.188;11.566;2022-08-19T04:50:39;20.43;81.28
64111;DHT22;50401;48.188;11.566;2022-08-19T04:53:05;20.39;81.48
64111;DHT22;50401;48.188;11.566;2022-08-19T04:55:30;20.13;82.26
64111;DHT22;50401;48.188;11.566;2022-08-19T04:57:55;19.98;82.72
64111;DHT22;50401;48.188;11.566;2022-08-19T05:00:21;19.96;82.89
64111;DHT22;50401;48.188;11.566;2022-08-19T05:02:46;20.03;82.78
64111;DHT22;50401;48.188;11.566;2022-08-19T05:05:11;20.04;82.89
64111;DHT22;50401;48.188;11.566;2022-08-19T05:07:37;20.17;82.58
64111;DHT22;50401;48.188;11.566;2022-08-19T05:10:04;20.20;82.28
64111;DHT22;50401;48.188;11.566;2022-08-19T05:12:29;20.26;81.88
64111;DHT22;50401;48.188;11.566;2022-08-19T05:14:55;20.25;81.58
64111;DHT22;50401;48.188;11.566;2022-08-19T05:17:21;20.25;81.71
64111;DHT22;50401;48.188;11.566;2022-08-19T05:19:47;20.31;81.33
64111;DHT22;50401;48.188;11.566;2022-08-19T05:22:30;20.38;81.24
64111;DHT22;50401;48.188;11.566;2022-08-19T05:25:06;20.36;81.40
64111;DHT22;50401;48.188;11.566;2022-08-19T05:27:32;20.43;81.30
64111;DHT22;50401;48.188;11.566;2022-08-19T05:29:57;20.41;81.43
64111;DHT22;50401;48.188;11.566;2022-08-19T05:32:23;20.46;81.12
64111;DHT22;50401;48.188;11.566;2022-08-19T05:34:48;20.52;80.85
64111;DHT22;50401;48.188;11.566;2022-08-19T05:37:14;20.43;80.83
64111;DHT22;50401;48.188;11.566;2022-08-19T05:39:39;20.49;80.90
64111;DHT22;50401;48.188;11.566;2022-08-19T05:42:07;20.42;81.07
64111;DHT22;50401;48.188;11.566;2022-08-19T05:44:34;20.43;80.86
64111;DHT22;50401;48.188;11.566;2022-08-19T05:47:00;20.49;80.73
64111;DHT22;50401;48.188;11.566;2022-08-19T05:49:26;20.52;80.65
64111;DHT22;50401;48.188;11.566;2022-08-19T05:51:52;20.49;80.73
64111;DHT22;50401;48.188;11.566;2022-08-19T05:54:18;20.50;80.85
64111;DHT22;50401;48.188;11.566;2022-08-19T05:56:44;20.52;80.78
64111;DHT22;50401;48.188;11.566;2022-08-19T05:59:12;20.60;80.54
64111;DHT22;50401;48.188;11.566;2022-08-19T06:01:38;20.50;80.68
64111;DHT22;50401;48.188;11.566;2022-08-19T06:04:03;20.42;80.75
64111;DHT22;50401;48.188;11.566;2022-08-19T06:06:29;20.49;80.80
64111;DHT22;50401;48.188;11.566;2022-08-19T06:08:54;20.52;80.78
64111;DHT22;50401;48.188;11.566;2022-08-19T06:11:24;20.56;80.66
64111;DHT22;50401;48.188;11.566;2022-08-19T06:13:51;20.56;80.67
64111;DHT22;50401;48.188;11.566;2022-08-19T06:16:20;20.55;80.63
64111;DHT22;50401;48.188;11.566;2022-08-19T06:18:48;20.56;80.49
64111;DHT22;50401;48.188;11.566;2022-08-19T06:21:13;20.59;80.39
64111;DHT22;50401;48.188;11.566;2022-08-19T06:23:39;20.62;80.21
64111;DHT22;50401;48.188;11.566;2022-08-19T06:26:05;20.70;80.07
64111;DHT22;50401;48.188;11.566;2022-08-19T06:28:30;20.70;80.01
64111;DHT22;50401;48.188;11.566;2022-08-19T06:30:57;20.69;79.83
64111;DHT22;50401;48.188;11.566;2022-08-19T06:33:23;20.67;80.06
64111;DHT22;50401;48.188;11.566;2022-08-19T06:35:48;20.63;80.27
64111;DHT22;50401;48.188;11.566;2022-08-19T06:38:13;20.66;80.21
64111;DHT22;50401;48.188;11.566;2022-08-19T06:40:38;20.69;80.23
64111;DHT22;50401;48.188;11.566;2022-08-19T06:43:04;20.66;80.20
64111;DHT22;50401;48.188;11.566;2022-08-19T06:45:29;20.67;80.30
64111;DHT22;50401;48.188;11.566;2022-08-19T06:47:55;20.70;80.28
64111;DHT22;50401;48.188;11.566;2022-08-19T06:50:21;20.76;80.09
64111;DHT22;50401;48.188;11.566;2022-08-19T06:52:47;20.76;80.17
64111;DHT22;50401;48.188;11.566;2022-08-19T06:55:12;20.77;80.09
64111;DHT22;50401;48.188;11.566;2022-08-19T06:57:38;20.90;79.74
64111;DHT22;50401;48.188;11.566;2022-08-19T07:00:04;20.87;79.77
64111;DHT22;50401;48.188;11.566;2022-08-19T07:02:29;20.83;79.92
64111;DHT22;50401;48.188;11.566;2022-08-19T07:04:55;20.85;80.04
64111;DHT22;50401;48.188;11.566;2022-08-19T07:07:23;20.94;79.50
64111;DHT22;50401;48.188;11.566;2022-08-19T07:09:49;21.04;79.46
64111;DHT22;50401;48.188;11.566;2022-08-19T07:12:14;21.04;79.48
64111;DHT22;50401;48.188;11.566;2022-08-19T07:14:40;21.00;79.70
64111;DHT22;50401;48.188;11.566;2022-08-19T07:17:07;21.10;80.12
64111;DHT22;50401;48.188;11.566;2022-08-19T07:19:32;21.08;80.28
64111;DHT22;50401;48.188;11.566;2022-08-19T07:21:58;21.11;80.41
64111;DHT22;50401;48.188;11.566;2022-08-19T07:24:27;21.15;80.60
64111;DHT22;50401;48.188;11.566;2022-08-19T07:26:53;21.19;80.26
64111;DHT22;50401;48.188;11.566;2022-08-19T07:29:19;21.26;80.77
64111;DHT22;50401;48.188;11.566;2022-08-19T07:31:48;21.36;81.13
64111;DHT22;50401;48.188;11.566;2022-08-19T07:34:14;21.50;80.98
64111;DHT22;50401;48.188;11.566;2022-08-19T07:36:40;21.67;80.99
64111;DHT22;50401;48.188;11.566;2022-08-19T07:39:14;21.76;80.88
64111;DHT22;50401;48.188;11.566;2022-08-19T07:41:40;21.83;80.67
64111;DHT22;50401;48.188;11.566;2022-08-19T07:44:06;21.85;80.07
64111;DHT22;50401;48.188;11.566;2022-08-19T07:46:35;21.88;79.40
64111;DHT22;50401;48.188;11.566;2022-08-19T07:49:02;21.83;78.52
64111;DHT22;50401;48.188;11.566;2022-08-19T07:51:28;21.78;79.58
64111;DHT22;50401;48.188;11.566;2022-08-19T07:53:53;21.81;79.23
64111;DHT22;50401;48.188;11.566;2022-08-19T07:56:19;21.76;79.01
64111;DHT22;50401;48.188;11.566;2022-08-19T07:58:45;21.57;79.91
64111;DHT22;50401;48.188;11.566;2022-08-19T08:01:12;21.49;80.61
64111;DHT22;50401;48.188;11.566;2022-08-19T08:03:38;21.41;80.91
64111;DHT22;50401;48.188;11.566;2022-08-19T08:06:22;21.31;81.09
64111;DHT22;50401;48.188;11.566;2022-08-19T08:09:06;21.22;81.44
64111;DHT22;50401;48.188;11.566;2022-08-19T08:11:50;21.22;80.86
64111;DHT22;50401;48.188;11.566;2022-08-19T08:14:17;21.15;80.78
64111;DHT22;50401;48.188;11.566;2022-08-19T08:16:43;21.07;81.21
64111;DHT22;50401;48.188;11.566;2022-08-19T08:19:10;21.02;81.12
64111;DHT22;50401;48.188;11.566;2022-08-19T08:21:35;20.98;81.30
64111;DHT22;50401;48.188;11.566;2022-08-19T08:24:00;20.94;81.74
64111;DHT22;50401;48.188;11.566;2022-08-19T08:26:26;20.90;81.92
64111;DHT22;50401;48.188;11.566;2022-08-19T08:28:52;20.94;81.65
64111;DHT22;50401;48.188;11.566;2022-08-19T08:31:17;20.98;81.19
64111;DHT22;50401;48.188;11.566;2022-08-19T08:33:46;20.98;81.10
64111;DHT22;50401;48.188;11.566;2022-08-19T08:36:12;20.97;81.12
64111;DHT22;50401;48.188;11.566;2022-08-19T08:38:38;20.91;81.11
64111;DHT22;50401;48.188;11.566;2022-08-19T08:41:28;20.88;81.46
64111;DHT22;50401;48.188;11.566;2022-08-19T08:43:51;20.88;81.77
64111;DHT22;50401;48.188;11.566;2022-08-19T08:51:35;20.90;81.39
64111;DHT22;50401;48.188;11.566;2022-08-19T08:54:07;21.00;81.14
64111;DHT22;50401;48.188;11.566;2022-08-19T08:56:33;21.12;81.68
64111;DHT22;50401;48.188;11.566;2022-08-19T09:01:23;21.12;82.00
64111;DHT22;50401;48.188;11.566;2022-08-19T09:03:49;21.21;81.90
64111;DHT22;50401;48.188;11.566;2022-08-19T09:06:19;21.21;82.29
64111;DHT22;50401;48.188;11.566;2022-08-19T09:08:49;21.18;82.66
64111;DHT22;50401;48.188;11.566;2022-08-19T09:11:24;21.15;82.87
64111;DHT22;50401;48.188;11.566;2022-08-19T09:14:02;21.08;82.96
64111;DHT22;50401;48.188;11.566;2022-08-19T09:16:32;21.11;82.62
64111;DHT22;50401;48.188;11.566;2022-08-19T09:19:04;21.11;82.61
64111;DHT22;50401;48.188;11.566;2022-08-19T09:21:29;21.02;82.62
64111;DHT22;50401;48.188;11.566;2022-08-19T09:23:55;21.04;82.80
64111;DHT22;50401;48.188;11.566;2022-08-19T09:26:21;21.07;82.56
64111;DHT22;50401;48.188;11.566;2022-08-19T09:28:50;21.07;82.56
64111;DHT22;50401;48.188;11.566;2022-08-19T09:31:19;21.10;81.88
64111;DHT22;50401;48.188;11.566;2022-08-19T09:33:45;20.95;82.09
64111;DHT22;50401;48.188;11.566;2022-08-19T09:36:12;20.95;82.31
64111;DHT22;50401;48.188;11.566;2022-08-19T09:38:37;20.91;82.37
64111;DHT22;50401;48.188;11.566;2022-08-19T09:41:07;20.88;82.56
64111;DHT22;50401;48.188;11.566;2022-08-19T09:43:33;20.94;82.75
64111;DHT22;50401;48.188;11.566;2022-08-19T09:46:01;21.00;82.54
64111;DHT22;50401;48.188;11.566;2022-08-19T09:48:27;21.12;81.98
64111;DHT22;50401;48.188;11.566;2022-08-19T09:50:52;21.22;81.28
64111;DHT22;50401;48.188;11.566;2022-08-19T09:53:18;21.36;80.88
64111;DHT22;50401;48.188;11.566;2022-08-19T09:55:43;21.50;80.60
64111;DHT22;50401;48.188;11.566;2022-08-19T09:58:09;21.60;81.13
64111;DHT22;50401;48.188;11.566;2022-08-19T10:00:36;21.66;81.66
64111;DHT22;50401;48.188;11.566;2022-08-19T10:03:01;21.84;82.24
64111;DHT22;50401;48.188;11.566;2022-08-19T10:05:27;21.80;81.98
64111;DHT22;50401;48.188;11.566;2022-08-19T10:08:11;21.69;82.37
64111;DHT22;50401;48.188;11.566;2022-08-19T10:10:37;21.69;82.97
64111;DHT22;50401;48.188;11.566;2022-08-19T10:13:02;21.70;82.89
64111;DHT22;50401;48.188;11.566;2022-08-19T10:15:28;21.80;83.05
64111;DHT22;50401;48.188;11.566;2022-08-19T10:17:53;21.90;82.90
64111;DHT22;50401;48.188;11.566;2022-08-19T10:20:18;21.80;83.12
64111;DHT22;50401;48.188;11.566;2022-08-19T10:22:43;21.83;82.78
64111;DHT22;50401;48.188;11.566;2022-08-19T10:25:09;22.11;82.29
64111;DHT22;50401;48.188;11.566;2022-08-19T10:27:34;22.47;81.40
64111;DHT22;50401;48.188;11.566;2022-08-19T10:29:59;22.86;80.62
64111;DHT22;50401;48.188;11.566;2022-08-19T10:32:25;23.06;80.36
64111;DHT22;50401;48.188;11.566;2022-08-19T10:34:50;23.09;79.96
64111;DHT22;50401;48.188;11.566;2022-08-19T10:37:17;23.39;79.38
64111;DHT22;50401;48.188;11.566;2022-08-19T10:39:42;23.49;78.83
64111;DHT22;50401;48.188;11.566;2022-08-19T10:42:12;23.61;78.63
64111;DHT22;50401;48.188;11.566;2022-08-19T10:44:38;23.67;78.15
64111;DHT22;50401;48.188;11.566;2022-08-19T10:47:04;23.64;76.82
64111;DHT22;50401;48.188;11.566;2022-08-19T10:49:29;23.65;78.33
64111;DHT22;50401;48.188;11.566;2022-08-19T10:51:55;23.68;76.30
64111;DHT22;50401;48.188;11.566;2022-08-19T10:54:38;23.53;77.40
64111;DHT22;50401;48.188;11.566;2022-08-19T10:57:23;23.33;77.81
64111;DHT22;50401;48.188;11.566;2022-08-19T10:59:54;23.20;77.70
64111;DHT22;50401;48.188;11.566;2022-08-19T11:02:20;23.12;77.65
64111;DHT22;50401;48.188;11.566;2022-08-19T11:04:45;23.02;77.63
64111;DHT22;50401;48.188;11.566;2022-08-19T11:07:10;23.23;78.19
64111;DHT22;50401;48.188;11.566;2022-08-19T11:09:40;23.38;77.96
64111;DHT22;50401;48.188;11.566;2022-08-19T11:12:05;23.47;76.27
64111;DHT22;50401;48.188;11.566;2022-08-19T11:14:32;23.61;75.84
64111;DHT22;50401;48.188;11.566;2022-08-19T11:16:58;23.71;75.92
64111;DHT22;50401;48.188;11.566;2022-08-19T11:19:24;23.60;75.90
64111;DHT22;50401;48.188;11.566;2022-08-19T11:21:50;23.47;75.31
64111;DHT22;50401;48.188;11.566;2022-08-19T11:24:17;23.50;74.80
64111;DHT22;50401;48.188;11.566;2022-08-19T11:26:43;23.58;74.78
64111;DHT22;50401;48.188;11.566;2022-08-19T11:29:09;23.70;74.85
64111;DHT22;50401;48.188;11.566;2022-08-19T11:31:39;23.74;74.63
64111;DHT22;50401;48.188;11.566;2022-08-19T11:34:05;23.77;74.21
64111;DHT22;50401;48.188;11.566;2022-08-19T11:36:31;23.73;74.17
64111;DHT22;50401;48.188;11.566;2022-08-19T11:38:57;23.65;74.32
64111;DHT22;50401;48.188;11.566;2022-08-19T11:41:23;23.53;74.02
64111;DHT22;50401;48.188;11.566;2022-08-19T11:43:49;23.38;74.14
64111;DHT22;50401;48.188;11.566;2022-08-19T11:46:15;23.29;73.22
64111;DHT22;50401;48.188;11.566;2022-08-19T11:48:41;23.18;73.39
64111;DHT22;50401;48.188;11.566;2022-08-19T11:51:07;23.16;73.97
64111;DHT22;50401;48.188;11.566;2022-08-19T11:53:34;23.30;74.00
64111;DHT22;50401;48.188;11.566;2022-08-19T11:56:00;23.51;73.16
64111;DHT22;50401;48.188;11.566;2022-08-19T11:58:25;23.58;73.08
64111;DHT22;50401;48.188;11.566;2022-08-19T12:00:51;23.65;72.84
64111;DHT22;50401;48.188;11.566;2022-08-19T12:03:17;23.64;72.80
64111;DHT22;50401;48.188;11.566;2022-08-19T12:05:44;23.58;72.80
64111;DHT22;50401;48.188;11.566;2022-08-19T12:08:11;23.30;73.41
64111;DHT22;50401;48.188;11.566;2022-08-19T12:10:37;23.36;73.35
64111;DHT22;50401;48.188;11.566;2022-08-19T12:13:03;23.53;72.84
64111;DHT22;50401;48.188;11.566;2022-08-19T12:15:28;23.56;72.71
64111;DHT22;50401;48.188;11.566;2022-08-19T12:33:03;23.47;71.93
64111;DHT22;50401;48.188;11.566;2022-08-19T12:35:29;23.57;71.51
64111;DHT22;50401;48.188;11.566;2022-08-19T12:37:55;23.68;71.53
64111;DHT22;50401;48.188;11.566;2022-08-19T12:40:20;23.67;71.00
64111;DHT22;50401;48.188;11.566;2022-08-19T12:42:46;23.82;70.49
64111;DHT22;50401;48.188;11.566;2022-08-19T12:45:12;24.02;70.21
64111;DHT22;50401;48.188;11.566;2022-08-19T12:47:41;24.13;69.78
64111;DHT22;50401;48.188;11.566;2022-08-19T12:50:06;24.17;69.53
64111;DHT22;50401;48.188;11.566;2022-08-19T12:52:34;24.16;69.30
64111;DHT22;50401;48.188;11.566;2022-08-19T12:55:02;24.08;69.58
64111;DHT22;50401;48.188;11.566;2022-08-19T12:57:28;24.16;69.08
64111;DHT22;50401;48.188;11.566;2022-08-19T12:59:54;24.19;68.46
64111;DHT22;50401;48.188;11.566;2022-08-19T13:02:19;24.29;68.32
64111;DHT22;50401;48.188;11.566;2022-08-19T13:04:46;24.26;68.71
64111;DHT22;50401;48.188;11.566;2022-08-19T13:07:11;24.10;69.37
64111;DHT22;50401;48.188;11.566;2022-08-19T13:09:37;24.10;69.18
64111;DHT22;50401;48.188;11.566;2022-08-19T13:12:02;24.01;69.02
64111;DHT22;50401;48.188;11.566;2022-08-19T13:14:31;24.06;69.16
64111;DHT22;50401;48.188;11.566;2022-08-19T13:16:56;24.10;69.50
64111;DHT22;50401;48.188;11.566;2022-08-19T13:19:22;24.20;68.40
64111;DHT22;50401;48.188;11.566;2022-08-19T13:21:51;24.33;68.35
64111;DHT22;50401;48.188;11.566;2022-08-19T13:24:17;24.39;68.09
64111;DHT22;50401;48.188;11.566;2022-08-19T13:26:43;24.34;68.65
64111;DHT22;50401;48.188;11.566;2022-08-19T13:29:08;24.27;68.56
64111;DHT22;50401;48.188;11.566;2022-08-19T13:31:52;24.32;68.85
64111;DHT22;50401;48.188;11.566;2022-08-19T13:34:38;24.37;68.88
64111;DHT22;50401;48.188;11.566;2022-08-19T13:37:04;24.26;69.53
64111;DHT22;50401;48.188;11.566;2022-08-19T13:39:30;24.24;69.40
64111;DHT22;50401;48.188;11.566;2022-08-19T13:41:57;24.30;69.22
64111;DHT22;50401;48.188;11.566;2022-08-19T13:44:23;24.19;69.71
64111;DHT22;50401;48.188;11.566;2022-08-19T13:46:48;23.91;70.09
64111;DHT22;50401;48.188;11.566;2022-08-19T13:49:16;23.84;70.60
64111;DHT22;50401;48.188;11.566;2022-08-19T13:51:42;23.68;70.88
64111;DHT22;50401;48.188;11.566;2022-08-19T13:54:08;23.64;70.95
64111;DHT22;50401;48.188;11.566;2022-08-19T13:56:33;23.60;71.92
64111;DHT22;50401;48.188;11.566;2022-08-19T13:58:59;23.40;72.53
64111;DHT22;50401;48.188;11.566;2022-08-19T14:01:24;23.23;73.64
64111;DHT22;50401;48.188;11.566;2022-08-19T14:03:51;23.16;75.06
64111;DHT22;50401;48.188;11.566;2022-08-19T14:06:16;23.26;75.37
64111;DHT22;50401;48.188;11.566;2022-08-19T14:08:42;23.32;75.16
64111;DHT22;50401;48.188;11.566;2022-08-19T14:11:08;23.40;73.28
64111;DHT22;50401;48.188;11.566;2022-08-19T14:13:33;23.42;73.07
64111;DHT22;50401;48.188;11.566;2022-08-19T14:15:59;23.56;72.41
64111;DHT22;50401;48.188;11.566;2022-08-19T14:18:24;23.68;71.19
64111;DHT22;50401;48.188;11.566;2022-08-19T14:20:50;23.64;71.28
64111;DHT22;50401;48.188;11.566;2022-08-19T14:23:15;23.60;71.85
64111;DHT22;50401;48.188;11.566;2022-08-19T14:25:41;23.65;71.81
64111;DHT22;50401;48.188;11.566;2022-08-19T14:28:08;23.56;71.77
64111;DHT22;50401;48.188;11.566;2022-08-19T14:30:34;23.47;71.90
64111;DHT22;50401;48.188;11.566;2022-08-19T14:33:03;23.23;72.34
64111;DHT22;50401;48.188;11.566;2022-08-19T14:35:29;23.16;72.55
64111;DHT22;50401;48.188;11.566;2022-08-19T14:37:55;23.22;71.96
64111;DHT22;50401;48.188;11.566;2022-08-19T14:40:23;23.27;71.58
64111;DHT22;50401;48.188;11.566;2022-08-19T14:42:52;23.13;72.12
64111;DHT22;50401;48.188;11.566;2022-08-19T14:45:20;23.22;71.85
64111;DHT22;50401;48.188;11.566;2022-08-19T14:47:46;23.38;71.10
64111;DHT22;50401;48.188;11.566;2022-08-19T14:50:11;23.40;71.06
64111;DHT22;50401;48.188;11.566;2022-08-19T14:52:36;23.45;71.05
64111;DHT22;50401;48.188;11.566;2022-08-19T14:55:03;23.50;70.96
64111;DHT22;50401;48.188;11.566;2022-08-19T14:57:28;23.32;71.30
64111;DHT22;50401;48.188;11.566;2022-08-19T14:59:53;23.53;71.04
64111;DHT22;50401;48.188;11.566;2022-08-19T15:02:19;23.47;71.29
64111;DHT22;50401;48.188;11.566;2022-08-19T15:04:45;23.54;70.85
64111;DHT22;50401;48.188;11.566;2022-08-19T15:10:14;23.56;69.55
64111;DHT22;50401;48.188;11.566;2022-08-19T15:12:39;23.47;69.70
64111;DHT22;50401;48.188;11.566;2022-08-19T15:15:05;23.30;70.09
64111;DHT22;50401;48.188;11.566;2022-08-19T15:17:31;23.27;70.77
64111;DHT22;50401;48.188;11.566;2022-08-19T15:22:59;23.13;71.65
64111;DHT22;50401;48.188;11.566;2022-08-19T15:25:25;23.06;72.19
64111;DHT22;50401;48.188;11.566;2022-08-19T15:27:51;22.92;72.65
64111;DHT22;50401;48.188;11.566;2022-08-19T15:30:19;22.46;74.06
64111;DHT22;50401;48.188;11.566;2022-08-19T15:32:45;22.52;74.15
64111;DHT22;50401;48.188;11.566;2022-08-19T15:35:10;22.43;74.43
64111;DHT22;50401;48.188;11.566;2022-08-19T15:37:35;22.37;74.78
64111;DHT22;50401;48.188;11.566;2022-08-19T15:40:03;22.46;74.87
64111;DHT22;50401;48.188;11.566;2022-08-19T15:42:29;22.29;75.28